Adams, New York
Current Conditions -  °F | °C
As of 7:56 PM on Sunday 23 Nov 2014 (Local Time) from KART Reporting Station
Few Clouds Few Clouds  
Wind Chill:   Ceiling: Unl
Heat Index:   Visibility: 10mi
Dew Point:   Wind: 5mph
Humidity: 63%   Direction: 180°S
Pressure: 29.9"   Gusts: NA
Location:  43.81°N, 76.02°W
Report Text: KART 240056Z AUTO 18004KT 10SM FEW110 08/02 A2990 RMK AO2 SLP126 T00830017
Loading
Personal Weather Stations






























Interactive Weather Map New forecast layout! Learn more

10-Day Weather Forecast

Advertisements
Track Severe Weather on mobile